Tito Tuisese

Olheiro-Chefe - Nadi
3 Fev 2028
Quinta-feira
Processo

Personalidade

Adaptabilidade (5) Ambição (16) Controvérsia (6) Lealdade (19) Pressão (8) Profissionalismo (18) Espírito Esportivo (2) Temperamento (4)

Perfil

Estilo de Treinamento Democrático
Licença Nacional B
Determinação 4
Gestão de Pessoas 7
Motivação 4
Disciplina 6
Satisfação no Trabalho
100%
Fadiga
0%
Função Olheiro-Chefe
Salário 12.9K p/s
Contrato 14.03.2028

Desempenho

Comportamento Bom
Eficácia do Treinamento
24%
Desenvolvimento do Jogador
5%
Prevenção de Lesões
35%
Implementação Tática
5%

Eventos Recentes

Negociação de contrato iniciada agora
Avaliou um jogador agora
Avaliou um jogador agora
Participou de uma reunião de recrutamento agora
Apresentou um dossiê à direção agora
Negociação de contrato iniciada agora
Negociação de contrato iniciada 7d atrás
Negociação de contrato iniciada 7d atrás

Monitorando agora

318
Jogador Clube Status Habilidade Confiança Observado Última observação Último voto
Ryan Reid Hawke's Bay United Ativo 69 / 74 40% 5 02.02.2028 -
Jaiden Kucharski Perth Glory Ativo 99 / 110 40% 4 02.02.2028 -
O'ktamjon Abdumalikov Kokand 1912 Ativo 62 / 73 40% 1 02.02.2028 -
Mansoor Mohammad Maluku Utara United Ativo 80 / 84 40% 2 31.01.2028 -
Valentín Morelini Perth Glory Ativo 79 / 73 40% 2 31.01.2028 -
Or Yitzhak Bnei Yehuda Ativo 67 / 64 40% 1 31.01.2028 -
Shivam Naidu Lautoka Ativo 70 / 52 40% 6 28.01.2028 -
Septian David Maluku Utara United Ativo 70 / 74 40% 2 28.01.2028 -
Solomon Onyedikachi Nasinu Ativo 66 / 72 40% 6 27.01.2028 -
Mateo Fernández Brisbane Roar Ativo 91 / 101 40% 2 27.01.2028 -
Saian Mūqanov Okzhetpes Ativo 86 / 70 40% 2 27.01.2028 -
Regont Murati Auckland City Ativo 83 / 91 40% 8 26.01.2028 -
Wahyudi Hamisi Persijap Ativo 95 / 71 40% 9 26.01.2028 -
G'anisher Qodirov Shortan Ativo 89 / 97 40% 22 25.01.2028 -
Josaia Sela Rewa Ativo 67 / 58 40% 5 25.01.2028 -
Azizbek Usmonov Rewa Ativo 69 / 49 40% 6 25.01.2028 -
Owen Colvey WaiBOP United Ativo 72 / 67 40% 4 25.01.2028 -
Dimas Drajad Persib Ativo 85 / 90 40% 9 25.01.2028 -
Mahmud Jo'raboyev Mashal Ativo 66 / 87 40% 1 25.01.2028 -
Yofandani Pranata Dewa United Ativo 62 / 56 40% 4 24.01.2028 -
Kurniawan Ajie Dewa United Ativo 68 / 63 40% 1 24.01.2028 -
Bautista Alonso Omiya Ardija Ativo 80 / 101 40% 4 23.01.2028 -
Abdifatah Mohamed Muse Obod Ativo 70 / 80 40% 4 23.01.2028 -
Yusuf Meilana Persik Ativo 76 / 67 40% 2 23.01.2028 -
Ali Mekawir Navua Ativo 76 / 84 40% 14 22.01.2028 -
Xavier Jodamus AGMK Ativo 87 / 81 40% 2 22.01.2028 -
James Stamatelopoulos Hawke's Bay United Ativo 89 / 93 40% 1 22.01.2028 -
Erasyl Keulimzhai Taraz Ativo 75 / 80 40% 2 20.01.2028 -
Yance Sayuri Maluku Utara United Ativo 87 / 74 40% 3 20.01.2028 -
Darkhan Berdibek Aktobe Ativo 76 / 73 40% 1 20.01.2028 -
Ilham Udin Armayn PSBS Biak Ativo 92 / 89 40% 6 19.01.2028 -
Merei Zhambyl Taraz Ativo 82 / 84 40% 4 19.01.2028 -
Navro'zbek Iminjonov Atyrau Ativo 81 / 81 40% 1 19.01.2028 -
Gavin Kwan Adsit Borneo Ativo 87 / 91 40% 5 18.01.2028 -
Mathias MacAllister Sydney FC Ativo 79 / 71 40% 3 18.01.2028 -
Yuda Editya Madura United Ativo 60 / 66 40% 4 18.01.2028 -
Bamidele Ayodamole Ba Ativo 64 / 63 40% 3 18.01.2028 -
Bobomurod Bozorov Qizilqum Ativo 88 / 75 40% 20 17.01.2028 -
Abdurahmon Komilov Andijon Ativo 85 / 99 40% 2 17.01.2028 -
Ryo Watanabe Jubilo Iwata Ativo 108 / 86 40% 4 17.01.2028 -
Lucas Scicluna Perth Glory Ativo 82 / 82 40% 5 16.01.2028 -
Alex Garbett Southern United Ativo 67 / 86 40% 7 16.01.2028 -
Marco Kirwan Canterbury United Ativo 68 / 79 40% 1 16.01.2028 -
Dzaky Asraf Suva Ativo 70 / 62 40% 5 15.01.2028 -
Seth Clark Sydney FC Ativo 84 / 79 40% 2 15.01.2028 -
Kishan Sami Ba Ativo 66 / 58 40% 5 14.01.2028 -
Etonia Dogalau Ba Ativo 62 / 54 40% 5 14.01.2028 -
Paulo Gali Persebaya Ativo 66 / 91 40% 6 14.01.2028 -
Febri Hariyadi Persija Ativo 89 / 79 40% 3 13.01.2028 -
Paris Domfeh Auckland City Ativo 76 / 85 40% 1 13.01.2028 -
James Hilton Macarthur FC Ativo 77 / 81 40% 9 12.01.2028 -
Abdul Mumini Salifu Rewa Ativo 74 / 54 40% 6 12.01.2028 -
Buyung Ismu Lessy Persijap Ativo 61 / 79 40% 7 12.01.2028 -
Muhammad Ardiansyah PSM Ativo 62 / 68 40% 2 12.01.2028 -
Alejandro Cárdenas Wellington Phoenix Ativo 78 / 73 40% 1 10.01.2028 -
Adi Satryo Arema Ativo 77 / 52 40% 6 09.01.2028 -
Oscar Page Brisbane Roar Ativo 76 / 74 40% 3 09.01.2028 -
Islambek Murtazaev Akzhaiyk Ativo 70 / 77 40% 2 09.01.2028 -
Irham Nadzhofa Persija Ativo 60 / 66 40% 1 09.01.2028 -
Wataru Kamijo Sydney FC Ativo 88 / 94 40% 5 07.01.2028 -
Pieter Jacobsz Perth Glory Ativo 107 / 99 40% 3 06.01.2028 -
Carlos Morales Albirex Niigata Ativo 87 / 94 40% 1 05.01.2028 -
Ravid Olezki Hapoel Tel Aviv Ativo 81 / 87 40% 1 04.01.2028 -
Chris Payne WaiBOP United Ativo 75 / 84 40% 1 04.01.2028 -
Nurjahon Muzaffarov Mashal Ativo 86 / 98 40% 1 03.01.2028 -
Angus Kilkolly Auckland City Ativo 92 / 87 40% 11 02.01.2028 -
Miswar Saputra Madura United Ativo 73 / 87 40% 3 02.01.2028 -
Brian Omondi Neftchi Ativo 70 / 54 40% 3 02.01.2028 -
Khairul Fikri Bali United Ativo 55 / 65 40% 1 02.01.2028 -
Prince Maseko Waitakere United Ativo 78 / 85 40% 1 02.01.2028 -
Älisher Süleimen Atyrau Ativo 74 / 91 40% 3 31.12.2027 -
Adhamjon Musulmonov Shortan Ativo 83 / 75 40% 1 31.12.2027 -
Tim Tuiloma Canterbury United Ativo 76 / 78 40% 6 30.12.2027 -
Kristian Popovic Central Coast Mariners Ativo 92 / 95 40% 6 29.12.2027 -
Andrew Zamorano Rewa Ativo 82 / 84 40% 3 29.12.2027 -
Zakhele Shabangu Bnei Sakhnin Ativo 76 / 92 40% 4 28.12.2027 -
Monwabisi Mwondla Aktobe Ativo 80 / 74 40% 5 28.12.2027 -
Damir Temirov Andijon Ativo 104 / 87 40% 1 28.12.2027 -
Lucas Díaz Omiya Ardija Ativo 71 / 68 40% 1 28.12.2027 -
Alexvan Djin Persis Ativo 81 / 88 40% 1 28.12.2027 -
Hokky Caraka Persita Ativo 67 / 85 40% 4 26.12.2027 -
Nabil Begg Ba Ativo 63 / 67 40% 5 24.12.2027 -
Isroiljon Tursunboyev Shortan Ativo 64 / 70 40% 5 23.12.2027 -
Mario Virtuoso FC Tokyo Ativo 100 / 108 40% 1 23.12.2027 -
Sibusiso Tau Zhetysu Ativo 61 / 77 40% 1 23.12.2027 -
Danil Podymskii Zhetysu Ativo 83 / 81 40% 2 22.12.2027 -
Krisna Bayu Otto Persik Ativo 78 / 92 40% 2 22.12.2027 -
Artem Litosh Shakhter Ativo 74 / 75 40% 2 21.12.2027 -
Sairusi Nalaubu Lautoka Ativo 71 / 67 40% 19 20.12.2027 -
Daichi Suzuki Sagan Tosu Ativo 94 / 98 40% 15 20.12.2027 -
Theo Numberi Dewa United Ativo 73 / 61 40% 8 20.12.2027 -
Kou Gotou Irtysh Ativo 84 / 97 40% 6 19.12.2027 -
Rosyad Setiawan Semen Padang Ativo 67 / 72 40% 6 18.12.2027 -
Javohir Ro'ziyev Bukhara Ativo 78 / 100 40% 1 18.12.2027 -
Yoav Dejaldeti Bnei Yehuda Ativo 83 / 75 40% 1 18.12.2027 -
Idriss Ashiru Arema Ativo 68 / 76 40% 2 16.12.2027 -
Kiril Todorov Bukhara Ativo 84 / 85 40% 1 16.12.2027 -
Fredyan Wahyu Maluku Utara United Ativo 87 / 91 40% 1 16.12.2027 -
Toshikazu Teruuchi Urawa Reds Ativo 65 / 100 40% 5 15.12.2027 -
Bayanda Zulu Aktobe Ativo 70 / 71 40% 1 15.12.2027 -
Nikita Shevchenko Lokomotiv Ativo 85 / 77 40% 1 14.12.2027 -
Erkebūlan Rakhmetulla Irtysh Ativo 75 / 71 40% 5 12.12.2027 -
Jasur Akhmedov Obod Ativo 56 / 74 40% 2 12.12.2027 -
Kenta Matsuyama Avispa Fukuoka Ativo 87 / 93 40% 2 09.12.2027 -
Miras Umaniiazov Shakhter Ativo 91 / 93 40% 1 07.12.2027 -
Joaquín Rivero Sydney FC Ativo 79 / 89 40% 1 06.12.2027 -
Guy Bar Hapoel Tel Aviv Ativo 79 / 89 40% 1 06.12.2027 -
Erkebūlan Toibekov Taraz Ativo 69 / 76 40% 4 04.12.2027 -
Siyabonga Mkhize Lautoka Ativo 65 / 66 40% 3 04.12.2027 -
Miraziz Mahamadaliyev Andijon Ativo 75 / 68 40% 5 02.12.2027 -
Darold Kakasi Ba Ativo 54 / 73 40% 2 01.12.2027 -
Ahmad Agung PSIM Ativo 83 / 82 40% 3 30.11.2027 -
Samuel Navoce Labasa Ativo 58 / 65 40% 1 30.11.2027 -
Hojiakbar Mavlonov Labasa Ativo 60 / 76 40% 4 29.11.2027 -
Armando Oropa Semen Padang Ativo 73 / 76 40% 6 28.11.2027 -
Zach Lisolajski Jubilo Iwata Ativo 94 / 76 40% 2 28.11.2027 -
Arami Manumanubhai Navua Ativo 60 / 44 40% 1 28.11.2027 -
Zachary De Jesus Sydney FC Ativo 84 / 98 40% 2 27.11.2027 -
Oliver Middleton Auckland FC Ativo 84 / 95 40% 2 27.11.2027 -
Akeimi Ralulu Labasa Ativo 62 / 69 40% 1 26.11.2027 -
G'iyosjon Rizaqulov Qizilqum Ativo 67 / 95 40% 6 25.11.2027 -
Ricki Ariansyah Semen Padang Ativo 80 / 85 40% 3 25.11.2027 -
George Brown Bhayangkara Presisi Ativo 68 / 77 40% 2 24.11.2027 -
Jayden Necovski Melbourne City Ativo 85 / 93 40% 1 24.11.2027 -
Abraham Faruk Nasinu Ativo 57 / 63 40% 1 23.11.2027 -
Samuel Chijioke Waitakere United Ativo 84 / 87 40% 2 22.11.2027 -
Danil Baklanov Suva Ativo 66 / 68 40% 3 20.11.2027 -
Bill Van Hattum Canterbury United Ativo 77 / 74 40% 1 20.11.2027 -
Chris Van Hattum Hawke's Bay United Ativo 65 / 64 40% 1 20.11.2027 -
Harrison Devenish-Meares Western Sydney Wanderers Ativo 103 / 97 40% 1 20.11.2027 -
Achmad Iqbal Bachtiar Semen Padang Ativo 75 / 65 40% 6 18.11.2027 -
Itay Hemi Hapoel Beer Sheva Ativo 67 / 93 40% 5 18.11.2027 -
Yoga Adiatama Persik Ativo 80 / 81 40% 1 15.11.2027 -
Luka Vicelich Auckland FC Ativo 100 / 106 40% 2 14.11.2027 -
Christian Bracco Team Wellington Ativo 91 / 88 40% 7 13.11.2027 -
Kamronbek Hamroyev Mashal Ativo 75 / 84 40% 9 12.11.2027 -
Dane Sutton Waitakere United Ativo 73 / 84 40% 2 12.11.2027 -
Kazuaki Suganuma Maccabi Petach Tikva Ativo 84 / 64 40% 4 08.11.2027 -
Areya Prasad Auckland City Ativo 54 / 69 40% 2 08.11.2027 -
Cameron Tuiloma Canterbury United Ativo 62 / 75 40% 1 08.11.2027 -
Marco Fenton Waitakere United Ativo 54 / 52 40% 2 07.11.2027 -
Jayden Smith Wellington Phoenix Ativo 97 / 99 40% 2 06.11.2027 -
Rizqi Abhirama Persita Ativo 62 / 77 40% 2 05.11.2027 -
Imo Obot Maccabi Netanya Ativo 86 / 70 40% 1 05.11.2027 -
Qobylandy Kamariden Okzhetpes Ativo 60 / 68 40% 4 03.11.2027 -
Liberato McCowatt Southern United Ativo 87 / 97 40% 1 03.11.2027 -
Federico Soria Hapoel Kiryat Shmona Ativo 82 / 75 40% 1 03.11.2027 -
Emmanuel Paintsil Auckland City Ativo 59 / 58 40% 1 02.11.2027 -
Shahzod Turopov Qizilqum Ativo 67 / 65 40% 2 31.10.2027 -
Sam Singh WaiBOP United Ativo 71 / 85 40% 5 30.10.2027 -
Bryson Jerome Bhayangkara Presisi Ativo 77 / 71 40% 1 30.10.2027 -
Jai Payne Waitakere United Ativo 76 / 80 40% 1 30.10.2027 -
Muhammad Iqbal PSIM Ativo 83 / 75 40% 3 28.10.2027 -
Ädilkhan Taňzharyqov Aktobe Ativo 79 / 89 40% 2 28.10.2027 -
Gil Barda Hapoel Raanana Ativo 50 / 49 40% 1 28.10.2027 -
Josh Damevski Lautoka Ativo 55 / 69 40% 2 27.10.2027 -
Shivam Shandil Nasinu Ativo 60 / 53 40% 2 27.10.2027 -
Baurzhan Islamkhan Akzhaiyk Ativo 77 / 75 40% 2 26.10.2027 -
Nadeo Argawinata Persija Ativo 74 / 95 40% 1 26.10.2027 -
Simione Nabenu Suva Ativo 74 / 72 40% 2 24.10.2027 -
Rifky Dwi Septiawan Persita Ativo 68 / 80 40% 1 24.10.2027 -
Jayus Hariyono Arema Ativo 63 / 89 40% 1 23.10.2027 -
Fodé Pascoal Perth Glory Ativo 82 / 90 40% 1 23.10.2027 -
Daniel Pino Macarthur FC Ativo 75 / 85 40% 1 22.10.2027 -
Lior Shugar Hapoel Beer Sheva Ativo 84 / 65 40% 1 22.10.2027 -
Sheva Sanggasi Persijap Ativo 59 / 62 40% 6 21.10.2027 -
Zane Helweh Macarthur FC Ativo 85 / 92 40% 9 21.10.2027 -
Bonphas Munyasa Persebaya Ativo 91 / 92 40% 1 20.10.2027 -
Aren Inoue Sanfrecce Hiroshima Ativo 76 / 68 40% 13 19.10.2027 -
Dayron Mosquera Hapoel Tel Aviv Ativo 112 / 117 40% 1 18.10.2027 -
Ańsar Altynkhan Shakhter Ativo 71 / 91 40% 1 17.10.2027 -
Sahar Hershkovich Bnei Yehuda Ativo 64 / 88 40% 7 16.10.2027 -
Ryan Smith Southern United Ativo 57 / 66 40% 3 15.10.2027 -
Alfredo Trejo Avispa Fukuoka Ativo 88 / 99 40% 2 14.10.2027 -
Ben van Dorssen Rewa Ativo 62 / 73 40% 1 13.10.2027 -
Robert Lartey Rewa Ativo 74 / 75 40% 4 11.10.2027 -
Andrian Casvari Arema Ativo 79 / 73 40% 11 08.10.2027 -
Takumi Yasuno Vegalta Sendai Ativo 75 / 89 40% 4 07.10.2027 -
Ryan Kurnia Bhayangkara Presisi Ativo 76 / 66 40% 4 06.10.2027 -
Junior Mpanza Irtysh Ativo 57 / 85 40% 1 06.10.2027 -
Riley Foxe Perth Glory Ativo 86 / 90 40% 1 05.10.2027 -
Adam Bell Auckland City Ativo 89 / 92 40% 1 04.10.2027 -
Azizbek Erimbetov Neftchi Ativo 96 / 76 40% 1 04.10.2027 -
Steward Toata Nadroga Ativo 53 / 71 40% 1 04.10.2027 -
Vladimir Vomenko Okzhetpes Ativo 76 / 98 40% 2 02.10.2027 -
Tyler Williams Sydney FC Ativo 81 / 86 40% 1 01.10.2027 -
Joe Lacey Sydney FC Ativo 77 / 80 40% 2 30.09.2027 -
Sikeli Tuiloma Tailevu Naitasiri Ativo 64 / 50 40% 1 26.09.2027 -
Mauro Zijlstra Persija Ativo 72 / 74 40% 3 25.09.2027 -
Mardonjon Meliyev Bukhara Ativo 67 / 51 40% 6 22.09.2027 -
Reza Arya Pratama PSM Ativo 80 / 81 40% 3 22.09.2027 -
Abzal Islamkhan Akzhaiyk Ativo 60 / 71 40% 3 22.09.2027 -
Benjamin Machini Hapoel Kfar Saba Ativo 81 / 78 40% 7 21.09.2027 -
Clayton Van Hattum Lautoka Ativo 89 / 77 40% 2 16.09.2027 -
Chris Boxall Southern United Ativo 56 / 59 40% 1 13.09.2027 -
Iowane Matanisiga Labasa Ativo 58 / 73 40% 3 10.09.2027 -
Borja Martínez Persijap Ativo 102 / 91 40% 1 10.09.2027 -
Ambrose Sifuna Akzhaiyk Ativo 72 / 78 40% 1 08.09.2027 -
Älisher Sulei Taraz Ativo 73 / 80 40% 1 02.09.2027 -
Zikrillo Sūltaniiazov Ordabasy Ativo 103 / 85 40% 1 01.09.2027 -
Mohammad Khanafi Persik Ativo 59 / 82 40% 1 01.09.2027 -
Daniel Simon Auckland City Ativo 83 / 74 40% 3 30.08.2027 -
Malik Risaldi Persebaya Ativo 64 / 92 40% 1 27.08.2027 -
Joshua Inserra Melbourne Victory Ativo 90 / 90 40% 5 25.08.2027 -
Chris Donnell Central Coast Mariners Ativo 92 / 97 40% 3 25.08.2027 -
Richard Monday Ubong Vissel Kobe Ativo 87 / 86 40% 5 24.08.2027 -
Andriano Lebib Perth Glory Ativo 98 / 94 40% 6 23.08.2027 -
Amit Harel Bnei Yehuda Ativo 55 / 50 40% 4 23.08.2027 -
Peter Antoniou Auckland FC Ativo 63 / 74 40% 2 20.08.2027 -
Matías López Vélez Avispa Fukuoka Ativo 88 / 69 40% 1 20.08.2027 -
Tommy Sutton Waitakere United Ativo 58 / 65 40% 1 19.08.2027 -
Wonderson Yakubu Hapoel Raanana Ativo 80 / 75 40% 5 18.08.2027 -
Xavier Stella Kairat Ativo 68 / 73 40% 2 12.08.2027 -
Nehar Sadiki Bhayangkara Presisi Ativo 85 / 90 40% 1 10.08.2027 -
Lachlin Lambert Auckland FC Ativo 73 / 78 40% 7 09.08.2027 -
Yonatan Shani Hapoel Beer Sheva Ativo 77 / 62 40% 2 09.08.2027 -
Lachlan Middleton Sydney FC Ativo 72 / 76 40% 4 08.08.2027 -
Stanislav Samoilov Shakhter Ativo 84 / 84 40% 1 07.08.2027 -
Fabian Talladira Adelaide United Ativo 88 / 99 40% 5 06.08.2027 -
Patrick Joseph Ba Ativo 55 / 74 40% 4 06.08.2027 -
Askhat Nuserbayev Akzhaiyk Ativo 63 / 67 40% 1 06.08.2027 -
Sūltan Shymyrkhan Shakhter Ativo 59 / 66 40% 12 05.08.2027 -
Alex Robinson Macarthur FC Ativo 73 / 74 40% 1 05.08.2027 -
Lucas Cardoso Maluku Utara United Ativo 101 / 93 40% 1 02.08.2027 -
Eldor Adhamov Andijon Ativo 67 / 77 40% 2 31.07.2027 -
Hojiakbar Mamurov Mashal Ativo 54 / 48 40% 1 30.07.2027 -
Harlan Suardi PSIM Ativo 86 / 86 40% 1 30.07.2027 -
Alex Nunes Central Coast Mariners Ativo 87 / 84 40% 2 28.07.2027 -
Ilhamsyah Madura United Ativo 64 / 78 40% 1 27.07.2027 -
Tevita Waranaivalu Rewa Ativo 72 / 63 40% 1 23.07.2027 -
Kayne Razmovski Ba Ativo 77 / 84 40% 3 22.07.2027 -
Rauof Jbareen Hapoel Acre Ativo 74 / 87 40% 1 19.07.2027 -
Cristóbal Valbuena Western Sydney Wanderers Ativo 66 / 87 40% 2 17.07.2027 -
Mark Isozaki Omiya Ardija Ativo 82 / 100 40% 2 17.07.2027 -
Rendy Oscario Semen Padang Ativo 62 / 73 40% 2 13.07.2027 -
Keaton Murray Maluku Utara United Ativo 63 / 65 40% 2 13.07.2027 -
Sandro Embaló PSBS Biak Ativo 100 / 79 40% 1 12.07.2027 -
Iran Madura United Ativo 88 / 70 40% 3 11.07.2027 -
Diky Indrayana Madura United Ativo 79 / 82 40% 1 06.07.2027 -
Kavian Rahmani Melbourne City Ativo 87 / 83 40% 1 04.07.2027 -
Joel Abeka Bnei Yehuda Ativo 97 / 96 40% 1 30.06.2027 -
Aporosa Yada Labasa Ativo 76 / 62 40% 3 26.06.2027 -
Naftali Balay Akzhaiyk Ativo 86 / 105 40% 1 26.06.2027 -
Abdul Rahman PSM Ativo 58 / 65 40% 1 25.06.2027 -
Niv Tubul Hapoel Kfar Saba Ativo 76 / 72 40% 5 23.06.2027 -
Ridho Syuhada Maluku Utara United Ativo 66 / 86 40% 1 21.06.2027 -
Eyad Houssa Hapoel Kfar Saba Ativo 88 / 79 40% 1 18.06.2027 -
Vincent Sithole Lautoka Ativo 62 / 81 40% 2 17.06.2027 -
Azizbek Abdumajidov Nasinu Ativo 75 / 59 40% 2 17.06.2027 -
Benjamín Rojas Western Sydney Wanderers Ativo 81 / 86 40% 1 16.06.2027 -
Yahya Abu Dahi Metallurg Ativo 72 / 76 40% 3 09.06.2027 -
Nicolas Riveros Bnei Sakhnin Ativo 61 / 63 40% 1 07.06.2027 -
Roy Buganim Hapoel Kfar Saba Ativo 61 / 74 40% 2 06.06.2027 -
Moussa Diarra Shonan Bellmare Ativo 90 / 94 40% 2 21.05.2027 -
Sibongakonke Nkosi Metallurg Ativo 61 / 62 40% 1 16.05.2027 -
Hamoudi Kalaily Bnei Sakhnin Ativo 87 / 80 40% 6 13.05.2027 -
Dhayfallah Kadri PSIM Ativo 81 / 77 40% 3 07.05.2027 -
Farhod Fayzullaev Obod Ativo 49 / 57 40% 1 06.05.2027 -
Cahya Supriadi PSBS Biak Ativo 52 / 72 40% 1 03.05.2027 -
Chris Fenton WaiBOP United Ativo 47 / 66 40% 1 24.04.2027 -
Feby Eka Putra Persis Ativo 76 / 77 40% 1 21.04.2027 -
Isikeli Sevanaia Rewa Ativo 58 / 73 40% 3 02.04.2027 -
Mohammed Alam Lautoka Ativo 64 / 60 40% 1 29.03.2027 -
Jahongir Mamatqulov Qizilqum Ativo 64 / 59 40% 5 14.03.2027 -
Setareki Hughes Rewa Ativo 58 / 63 40% 5 12.03.2027 -
Liam Karagula Maccabi Haifa Ativo 74 / 63 40% 1 08.03.2027 -
Lucas Toffoletti Yokohama F. Marinos Ativo 99 / 90 40% 1 08.03.2027 -
Hikmatilla Hikmatov Pakhtakor Ativo 55 / 58 40% 2 07.03.2027 -
Musa Magagula Melbourne Victory Ativo 74 / 86 40% 1 02.03.2027 -
Gus Hoefsloot Sydney FC Ativo 70 / 74 40% 3 20.02.2027 -
Fitrul Dwi Rustapa Bali United Ativo 70 / 71 40% 1 15.02.2027 -
Fernando Rodríguez Venialgo Suva Ativo 82 / 73 40% 2 06.02.2027 -
Ryan McCowatt Hawke's Bay United Ativo 55 / 71 40% 1 12.01.2027 -
Fidel Origa Ba Ativo 90 / 85 40% 2 11.01.2027 -
Deklan Nelson WaiBOP United Ativo 59 / 55 40% 1 09.01.2027 -
Abdulazizxon Abdurashidov Sogdiana Ativo 97 / 98 40% 1 09.01.2027 -
Senirusi Bokini Lautoka Ativo 65 / 54 40% 1 09.01.2027 -
Hafizh Rizkianur Persija Ativo 40 / 77 40% 1 08.01.2027 -
Michael Pistiner Bnei Yehuda Ativo 84 / 96 40% 2 04.01.2027 -
Mihiro Sato Kashima Antlers Ativo 91 / 100 40% 1 26.12.2026 -
Dane Lewis Auckland City Ativo 72 / 73 40% 3 25.12.2026 -
Yehonatan Malka Hapoel Kiryat Shmona Ativo 78 / 70 40% 1 25.12.2026 -
Ronen Gradashov Bnei Yehuda Ativo 62 / 78 40% 1 24.12.2026 -
Saar Elkayam Hapoel Haifa Ativo 83 / 79 40% 1 22.12.2026 -
Ahmad Rusadi Madura United Ativo 78 / 51 40% 1 18.12.2026 -
Ibrahim Hassan Nadroga Ativo 49 / 71 40% 1 15.12.2026 -
Wataru Goto FC Tokyo Ativo 97 / 98 40% 2 13.12.2026 -
Farrux Jo'rayev Qizilqum Ativo 85 / 52 40% 1 05.12.2026 -
Alberto Stegman FC Tokyo Ativo 104 / 85 40% 1 04.12.2026 -
Zafarbek Akramov Mashal Ativo 70 / 71 40% 1 01.12.2026 -
Quvonchbek Abrayev Lokomotiv Ativo 85 / 95 40% 1 25.11.2026 -
Liran Sardal Maccabi Tel Aviv Ativo 109 / 80 40% 1 22.11.2026 -
Gabriele Matanisiga Rewa Ativo 67 / 69 40% 1 19.11.2026 -
Syahrul Lasinari PSM Ativo 85 / 83 40% 1 19.11.2026 -
Ghulam Fatkur Rachman PSIM Ativo 80 / 66 40% 1 14.11.2026 -
Pablo Negro Villarreal Perth Glory Ativo 91 / 95 40% 1 13.11.2026 -
Jubayer Bushnak Bnei Sakhnin Ativo 80 / 91 40% 10 09.11.2026 -
Shodiyor Shodiboyev Lokomotiv Ativo 96 / 68 40% 9 30.10.2026 -
Asilbek Tojiddinov Andijon Ativo 46 / 67 40% 1 23.10.2026 -
Yuki Aida Jubilo Iwata Ativo 71 / 76 40% 1 23.10.2026 -
Sardorbek Saidov Shortan Ativo 71 / 60 40% 1 23.10.2026 -
Fazliddin Karamatov Shortan Ativo 50 / 54 40% 1 15.10.2026 -
Samandar Sindarov Sogdiana Ativo 94 / 83 40% 1 11.10.2026 -
Iosefo Verevou Tailevu Naitasiri Ativo 59 / 71 40% 1 06.10.2026 -
Merabi Bregvadze Hapoel Acre Ativo 58 / 71 40% 1 28.09.2026 -
Alisher Xayrullayev Bukhara Ativo 90 / 97 40% 1 18.09.2026 -
Sena Igarashi Vegalta Sendai Ativo 90 / 93 40% 1 18.09.2026 -
Fazliddin Omonkeldiyev Sogdiana Ativo 55 / 84 40% 1 17.09.2026 -
Abdallah Maga Mashal Ativo 86 / 90 40% 2 09.09.2026 -
Arkhan Fikri Arema Ativo 51 / 80 40% 1 09.09.2026 -
Miras Zhaqsymbetov Taraz Ativo 68 / 60 40% 1 07.09.2026 -
Joela Biuvanua Lautoka Ativo 65 / 61 40% 1 13.08.2026 -
Jordan Vale Team Wellington Ativo 66 / 63 40% 1 09.08.2026 -
Agus Mahendra Bali United Ativo 59 / 84 40% 1 06.08.2026 -
Yoyo Aviv Maccabi Tel Aviv Ativo 55 / 75 40% 1 04.08.2026 -
Roman Khadjiev Mashal Ativo 98 / 88 40% 1 03.08.2026 -
Branimir Jočić Metallurg Ativo 116 / 103 40% 1 02.08.2026 -
Ersūltan Töreqūl Taraz Ativo 90 / 103 40% 1 02.08.2026 -